sensor_id;sensor_type;location;lat;lon;timestamp;P1;durP1;ratioP1;P2;durP2;ratioP2
8632;SDS011;4354;49.832;10.746;2023-03-04T00:02:05;13.57;;;8.93;;
8632;SDS011;4354;49.832;10.746;2023-03-04T00:04:32;15.93;;;9.50;;
8632;SDS011;4354;49.832;10.746;2023-03-04T00:06:59;14.83;;;8.57;;
8632;SDS011;4354;49.832;10.746;2023-03-04T00:09:26;14.13;;;8.10;;
8632;SDS011;4354;49.832;10.746;2023-03-04T00:11:53;15.57;;;9.00;;
8632;SDS011;4354;49.832;10.746;2023-03-04T00:14:19;13.67;;;8.93;;
8632;SDS011;4354;49.832;10.746;2023-03-04T00:16:47;15.63;;;9.80;;
8632;SDS011;4354;49.832;10.746;2023-03-04T00:19:14;15.23;;;9.37;;
8632;SDS011;4354;49.832;10.746;2023-03-04T00:21:41;13.90;;;9.00;;
8632;SDS011;4354;49.832;10.746;2023-03-04T00:24:08;16.07;;;9.23;;
8632;SDS011;4354;49.832;10.746;2023-03-04T00:26:35;15.87;;;9.20;;
8632;SDS011;4354;49.832;10.746;2023-03-04T00:29:02;13.83;;;9.23;;
8632;SDS011;4354;49.832;10.746;2023-03-04T00:31:29;13.97;;;9.13;;
8632;SDS011;4354;49.832;10.746;2023-03-04T00:33:56;15.43;;;8.67;;
8632;SDS011;4354;49.832;10.746;2023-03-04T00:36:23;13.37;;;8.20;;
8632;SDS011;4354;49.832;10.746;2023-03-04T00:38:50;12.40;;;8.30;;
8632;SDS011;4354;49.832;10.746;2023-03-04T00:41:17;13.57;;;7.83;;
8632;SDS011;4354;49.832;10.746;2023-03-04T00:43:44;11.63;;;8.13;;
8632;SDS011;4354;49.832;10.746;2023-03-04T00:46:10;14.37;;;8.67;;
8632;SDS011;4354;49.832;10.746;2023-03-04T00:48:37;13.23;;;8.70;;
8632;SDS011;4354;49.832;10.746;2023-03-04T00:51:04;15.77;;;8.63;;
8632;SDS011;4354;49.832;10.746;2023-03-04T00:53:31;13.53;;;8.13;;
8632;SDS011;4354;49.832;10.746;2023-03-04T00:55:58;13.60;;;8.70;;
8632;SDS011;4354;49.832;10.746;2023-03-04T00:58:25;14.23;;;8.70;;
8632;SDS011;4354;49.832;10.746;2023-03-04T01:00:51;12.63;;;8.47;;
8632;SDS011;4354;49.832;10.746;2023-03-04T01:03:18;13.27;;;8.03;;
8632;SDS011;4354;49.832;10.746;2023-03-04T01:05:45;16.13;;;9.17;;
8632;SDS011;4354;49.832;10.746;2023-03-04T01:08:12;14.73;;;9.07;;
8632;SDS011;4354;49.832;10.746;2023-03-04T01:10:39;13.27;;;7.67;;
8632;SDS011;4354;49.832;10.746;2023-03-04T01:13:06;15.90;;;8.60;;
8632;SDS011;4354;49.832;10.746;2023-03-04T01:15:33;15.53;;;8.33;;
8632;SDS011;4354;49.832;10.746;2023-03-04T01:18:00;16.30;;;8.60;;
8632;SDS011;4354;49.832;10.746;2023-03-04T01:20:27;13.13;;;8.43;;
8632;SDS011;4354;49.832;10.746;2023-03-04T01:22:53;13.20;;;8.70;;
8632;SDS011;4354;49.832;10.746;2023-03-04T01:25:20;17.67;;;7.97;;
8632;SDS011;4354;49.832;10.746;2023-03-04T01:27:47;13.10;;;8.37;;
8632;SDS011;4354;49.832;10.746;2023-03-04T01:30:14;14.00;;;8.57;;
8632;SDS011;4354;49.832;10.746;2023-03-04T01:32:41;12.37;;;7.70;;
8632;SDS011;4354;49.832;10.746;2023-03-04T01:35:08;18.27;;;8.53;;
8632;SDS011;4354;49.832;10.746;2023-03-04T01:37:35;15.20;;;8.80;;
8632;SDS011;4354;49.832;10.746;2023-03-04T01:40:02;15.60;;;9.63;;
8632;SDS011;4354;49.832;10.746;2023-03-04T01:42:31;18.67;;;11.80;;
8632;SDS011;4354;49.832;10.746;2023-03-04T01:45:00;19.57;;;11.47;;
8632;SDS011;4354;49.832;10.746;2023-03-04T01:47:29;21.17;;;12.57;;
8632;SDS011;4354;49.832;10.746;2023-03-04T01:49:58;20.17;;;13.10;;
8632;SDS011;4354;49.832;10.746;2023-03-04T01:52:28;21.03;;;12.87;;
8632;SDS011;4354;49.832;10.746;2023-03-04T01:54:55;23.27;;;13.47;;
8632;SDS011;4354;49.832;10.746;2023-03-04T01:57:23;22.90;;;13.90;;
8632;SDS011;4354;49.832;10.746;2023-03-04T02:02:51;20.97;;;13.47;;
8632;SDS011;4354;49.832;10.746;2023-03-04T02:05:21;22.20;;;13.20;;
8632;SDS011;4354;49.832;10.746;2023-03-04T02:07:49;24.40;;;14.07;;
8632;SDS011;4354;49.832;10.746;2023-03-04T02:10:16;22.80;;;13.63;;
8632;SDS011;4354;49.832;10.746;2023-03-04T02:12:43;23.10;;;13.20;;
8632;SDS011;4354;49.832;10.746;2023-03-04T02:15:11;24.17;;;13.93;;
8632;SDS011;4354;49.832;10.746;2023-03-04T02:17:37;21.83;;;13.30;;
8632;SDS011;4354;49.832;10.746;2023-03-04T02:20:16;18.87;;;12.27;;
8632;SDS011;4354;49.832;10.746;2023-03-04T02:23:01;20.33;;;12.80;;
8632;SDS011;4354;49.832;10.746;2023-03-04T02:28:44;21.37;;;12.53;;
8632;SDS011;4354;49.832;10.746;2023-03-04T02:31:45;25.20;;;13.30;;
8632;SDS011;4354;49.832;10.746;2023-03-04T02:34:06;18.87;;;11.77;;
8632;SDS011;4354;49.832;10.746;2023-03-04T02:36:38;18.97;;;12.07;;
8632;SDS011;4354;49.832;10.746;2023-03-04T02:39:10;23.03;;;12.87;;
8632;SDS011;4354;49.832;10.746;2023-03-04T02:41:40;19.37;;;12.60;;
8632;SDS011;4354;49.832;10.746;2023-03-04T02:44:14;20.60;;;12.57;;
8632;SDS011;4354;49.832;10.746;2023-03-04T02:47:01;19.77;;;11.90;;
8632;SDS011;4354;49.832;10.746;2023-03-04T02:49:30;18.57;;;12.27;;
8632;SDS011;4354;49.832;10.746;2023-03-04T02:52:02;19.43;;;12.10;;
8632;SDS011;4354;49.832;10.746;2023-03-04T02:54:34;19.67;;;12.40;;
8632;SDS011;4354;49.832;10.746;2023-03-04T02:57:04;19.60;;;12.13;;
8632;SDS011;4354;49.832;10.746;2023-03-04T02:59:32;20.67;;;12.47;;
8632;SDS011;4354;49.832;10.746;2023-03-04T03:01:59;18.67;;;11.50;;
8632;SDS011;4354;49.832;10.746;2023-03-04T03:04:26;20.37;;;12.30;;
8632;SDS011;4354;49.832;10.746;2023-03-04T03:06:53;17.50;;;11.97;;
8632;SDS011;4354;49.832;10.746;2023-03-04T03:09:20;19.73;;;12.13;;
8632;SDS011;4354;49.832;10.746;2023-03-04T03:11:47;18.77;;;11.20;;
8632;SDS011;4354;49.832;10.746;2023-03-04T03:14:14;21.33;;;12.43;;
8632;SDS011;4354;49.832;10.746;2023-03-04T03:16:41;19.90;;;11.73;;
8632;SDS011;4354;49.832;10.746;2023-03-04T03:19:08;18.67;;;12.07;;
8632;SDS011;4354;49.832;10.746;2023-03-04T03:21:35;19.30;;;12.23;;
8632;SDS011;4354;49.832;10.746;2023-03-04T03:24:02;18.73;;;11.73;;
8632;SDS011;4354;49.832;10.746;2023-03-04T03:26:29;17.60;;;11.73;;
8632;SDS011;4354;49.832;10.746;2023-03-04T03:28:56;18.87;;;11.80;;
8632;SDS011;4354;49.832;10.746;2023-03-04T03:31:22;20.97;;;12.43;;
8632;SDS011;4354;49.832;10.746;2023-03-04T03:33:49;16.20;;;11.43;;
8632;SDS011;4354;49.832;10.746;2023-03-04T03:36:16;18.20;;;12.20;;
8632;SDS011;4354;49.832;10.746;2023-03-04T03:38:43;19.00;;;12.20;;
8632;SDS011;4354;49.832;10.746;2023-03-04T03:41:10;18.43;;;11.50;;
8632;SDS011;4354;49.832;10.746;2023-03-04T03:43:36;18.90;;;12.03;;
8632;SDS011;4354;49.832;10.746;2023-03-04T03:46:03;18.40;;;12.07;;
8632;SDS011;4354;49.832;10.746;2023-03-04T03:48:30;18.63;;;11.80;;
8632;SDS011;4354;49.832;10.746;2023-03-04T03:50:57;16.90;;;11.17;;
8632;SDS011;4354;49.832;10.746;2023-03-04T03:53:24;18.37;;;12.17;;
8632;SDS011;4354;49.832;10.746;2023-03-04T03:55:51;17.57;;;11.47;;
8632;SDS011;4354;49.832;10.746;2023-03-04T03:58:17;18.70;;;12.70;;
8632;SDS011;4354;49.832;10.746;2023-03-04T04:00:44;19.73;;;12.83;;
8632;SDS011;4354;49.832;10.746;2023-03-04T04:03:13;21.50;;;12.97;;
8632;SDS011;4354;49.832;10.746;2023-03-04T04:05:41;20.47;;;13.07;;
8632;SDS011;4354;49.832;10.746;2023-03-04T04:08:17;20.90;;;13.07;;
8632;SDS011;4354;49.832;10.746;2023-03-04T04:10:44;21.77;;;12.93;;
8632;SDS011;4354;49.832;10.746;2023-03-04T04:13:11;20.83;;;13.00;;
8632;SDS011;4354;49.832;10.746;2023-03-04T04:15:38;19.67;;;12.67;;
8632;SDS011;4354;49.832;10.746;2023-03-04T04:18:05;20.20;;;12.87;;
8632;SDS011;4354;49.832;10.746;2023-03-04T04:20:33;19.47;;;11.70;;
8632;SDS011;4354;49.832;10.746;2023-03-04T04:23:00;19.40;;;12.33;;
8632;SDS011;4354;49.832;10.746;2023-03-04T04:25:28;19.07;;;12.83;;
8632;SDS011;4354;49.832;10.746;2023-03-04T04:27:55;19.73;;;13.27;;
8632;SDS011;4354;49.832;10.746;2023-03-04T04:30:22;17.47;;;12.20;;
8632;SDS011;4354;49.832;10.746;2023-03-04T04:32:49;19.13;;;12.37;;
8632;SDS011;4354;49.832;10.746;2023-03-04T04:35:16;20.13;;;12.83;;
8632;SDS011;4354;49.832;10.746;2023-03-04T04:37:43;21.40;;;13.63;;
8632;SDS011;4354;49.832;10.746;2023-03-04T04:40:10;20.07;;;12.40;;
8632;SDS011;4354;49.832;10.746;2023-03-04T04:42:37;20.97;;;12.53;;
8632;SDS011;4354;49.832;10.746;2023-03-04T04:45:04;21.50;;;13.27;;
8632;SDS011;4354;49.832;10.746;2023-03-04T04:47:31;20.80;;;13.93;;
8632;SDS011;4354;49.832;10.746;2023-03-04T04:49:58;19.63;;;12.77;;
8632;SDS011;4354;49.832;10.746;2023-03-04T04:52:28;24.20;;;13.63;;
8632;SDS011;4354;49.832;10.746;2023-03-04T04:54:54;22.20;;;13.90;;
8632;SDS011;4354;49.832;10.746;2023-03-04T04:57:21;19.63;;;13.23;;
8632;SDS011;4354;49.832;10.746;2023-03-04T04:59:48;18.30;;;11.97;;
8632;SDS011;4354;49.832;10.746;2023-03-04T05:02:15;20.20;;;12.63;;
8632;SDS011;4354;49.832;10.746;2023-03-04T05:04:42;16.90;;;11.60;;
8632;SDS011;4354;49.832;10.746;2023-03-04T05:07:08;19.33;;;13.10;;
8632;SDS011;4354;49.832;10.746;2023-03-04T05:09:35;19.67;;;12.43;;
8632;SDS011;4354;49.832;10.746;2023-03-04T05:12:02;21.67;;;13.17;;
8632;SDS011;4354;49.832;10.746;2023-03-04T05:14:29;20.03;;;12.67;;
8632;SDS011;4354;49.832;10.746;2023-03-04T05:16:56;20.63;;;12.53;;
8632;SDS011;4354;49.832;10.746;2023-03-04T05:19:26;23.00;;;13.13;;
8632;SDS011;4354;49.832;10.746;2023-03-04T05:21:53;22.13;;;13.40;;
8632;SDS011;4354;49.832;10.746;2023-03-04T05:24:19;21.57;;;13.80;;
8632;SDS011;4354;49.832;10.746;2023-03-04T05:26:46;18.07;;;13.17;;
8632;SDS011;4354;49.832;10.746;2023-03-04T05:29:13;22.27;;;13.67;;
8632;SDS011;4354;49.832;10.746;2023-03-04T05:31:40;19.07;;;13.50;;
8632;SDS011;4354;49.832;10.746;2023-03-04T05:34:07;20.60;;;13.37;;
8632;SDS011;4354;49.832;10.746;2023-03-04T05:36:33;24.00;;;14.33;;
8632;SDS011;4354;49.832;10.746;2023-03-04T05:39:00;21.87;;;13.50;;
8632;SDS011;4354;49.832;10.746;2023-03-04T05:41:27;20.33;;;13.83;;
8632;SDS011;4354;49.832;10.746;2023-03-04T05:43:54;22.87;;;14.23;;
8632;SDS011;4354;49.832;10.746;2023-03-04T05:46:21;20.87;;;13.03;;
8632;SDS011;4354;49.832;10.746;2023-03-04T05:48:51;22.33;;;13.20;;
8632;SDS011;4354;49.832;10.746;2023-03-04T05:51:19;21.37;;;14.13;;
8632;SDS011;4354;49.832;10.746;2023-03-04T05:53:47;20.23;;;13.37;;
8632;SDS011;4354;49.832;10.746;2023-03-04T05:56:15;22.87;;;14.07;;
8632;SDS011;4354;49.832;10.746;2023-03-04T05:58:44;22.87;;;14.87;;
8632;SDS011;4354;49.832;10.746;2023-03-04T06:01:13;22.70;;;13.87;;
8632;SDS011;4354;49.832;10.746;2023-03-04T06:03:40;21.00;;;13.90;;
8632;SDS011;4354;49.832;10.746;2023-03-04T06:06:09;24.97;;;15.10;;
8632;SDS011;4354;49.832;10.746;2023-03-04T06:08:35;25.80;;;14.57;;
8632;SDS011;4354;49.832;10.746;2023-03-04T06:11:02;24.17;;;14.73;;
8632;SDS011;4354;49.832;10.746;2023-03-04T06:13:31;21.67;;;14.40;;
8632;SDS011;4354;49.832;10.746;2023-03-04T06:15:58;25.80;;;15.17;;
8632;SDS011;4354;49.832;10.746;2023-03-04T06:18:26;23.13;;;14.17;;
8632;SDS011;4354;49.832;10.746;2023-03-04T06:20:55;24.37;;;14.83;;
8632;SDS011;4354;49.832;10.746;2023-03-04T06:23:26;21.90;;;14.50;;
8632;SDS011;4354;49.832;10.746;2023-03-04T06:25:54;28.67;;;17.07;;
8632;SDS011;4354;49.832;10.746;2023-03-04T06:28:23;25.80;;;15.80;;
8632;SDS011;4354;49.832;10.746;2023-03-04T06:30:50;23.20;;;15.87;;
8632;SDS011;4354;49.832;10.746;2023-03-04T06:33:18;31.03;;;16.97;;
8632;SDS011;4354;49.832;10.746;2023-03-04T06:35:45;26.23;;;15.20;;
8632;SDS011;4354;49.832;10.746;2023-03-04T06:38:12;24.10;;;16.03;;
8632;SDS011;4354;49.832;10.746;2023-03-04T06:40:39;24.30;;;14.93;;
8632;SDS011;4354;49.832;10.746;2023-03-04T06:43:06;23.33;;;14.53;;
8632;SDS011;4354;49.832;10.746;2023-03-04T06:45:32;24.60;;;15.70;;
8632;SDS011;4354;49.832;10.746;2023-03-04T06:47:59;23.13;;;14.87;;
8632;SDS011;4354;49.832;10.746;2023-03-04T06:50:26;25.23;;;15.63;;
8632;SDS011;4354;49.832;10.746;2023-03-04T06:52:54;24.30;;;15.70;;
8632;SDS011;4354;49.832;10.746;2023-03-04T06:55:22;28.63;;;15.77;;
8632;SDS011;4354;49.832;10.746;2023-03-04T06:57:49;26.97;;;16.53;;
8632;SDS011;4354;49.832;10.746;2023-03-04T07:00:16;23.47;;;15.90;;
8632;SDS011;4354;49.832;10.746;2023-03-04T07:02:44;24.67;;;16.03;;
8632;SDS011;4354;49.832;10.746;2023-03-04T07:05:11;26.43;;;15.90;;
8632;SDS011;4354;49.832;10.746;2023-03-04T07:07:38;25.30;;;16.03;;
8632;SDS011;4354;49.832;10.746;2023-03-04T07:10:04;24.93;;;15.13;;
8632;SDS011;4354;49.832;10.746;2023-03-04T07:12:31;32.83;;;14.97;;
8632;SDS011;4354;49.832;10.746;2023-03-04T07:14:58;28.03;;;15.40;;
8632;SDS011;4354;49.832;10.746;2023-03-04T07:17:25;23.23;;;14.67;;
8632;SDS011;4354;49.832;10.746;2023-03-04T07:19:52;23.73;;;15.27;;
8632;SDS011;4354;49.832;10.746;2023-03-04T07:22:18;21.73;;;15.30;;
8632;SDS011;4354;49.832;10.746;2023-03-04T07:24:45;24.90;;;15.60;;
8632;SDS011;4354;49.832;10.746;2023-03-04T07:27:12;20.70;;;14.20;;
8632;SDS011;4354;49.832;10.746;2023-03-04T07:29:39;24.07;;;14.63;;
8632;SDS011;4354;49.832;10.746;2023-03-04T07:32:06;22.43;;;14.63;;
8632;SDS011;4354;49.832;10.746;2023-03-04T07:34:34;26.43;;;15.37;;
8632;SDS011;4354;49.832;10.746;2023-03-04T07:37:01;26.70;;;16.03;;
8632;SDS011;4354;49.832;10.746;2023-03-04T07:39:27;23.30;;;15.20;;
8632;SDS011;4354;49.832;10.746;2023-03-04T07:41:54;25.00;;;14.87;;
8632;SDS011;4354;49.832;10.746;2023-03-04T07:44:21;23.50;;;15.03;;
8632;SDS011;4354;49.832;10.746;2023-03-04T07:46:48;25.00;;;15.40;;
8632;SDS011;4354;49.832;10.746;2023-03-04T07:49:14;22.93;;;15.40;;
8632;SDS011;4354;49.832;10.746;2023-03-04T07:51:41;23.37;;;14.13;;
8632;SDS011;4354;49.832;10.746;2023-03-04T07:54:08;20.97;;;14.57;;
8632;SDS011;4354;49.832;10.746;2023-03-04T07:56:35;22.27;;;14.57;;
8632;SDS011;4354;49.832;10.746;2023-03-04T07:59:02;22.93;;;14.70;;
8632;SDS011;4354;49.832;10.746;2023-03-04T08:01:30;22.17;;;13.73;;
8632;SDS011;4354;49.832;10.746;2023-03-04T08:03:59;21.63;;;13.93;;
8632;SDS011;4354;49.832;10.746;2023-03-04T08:06:27;20.97;;;14.20;;
8632;SDS011;4354;49.832;10.746;2023-03-04T08:08:55;22.87;;;15.33;;
8632;SDS011;4354;49.832;10.746;2023-03-04T08:11:24;24.50;;;15.20;;
8632;SDS011;4354;49.832;10.746;2023-03-04T08:13:52;22.50;;;13.50;;
8632;SDS011;4354;49.832;10.746;2023-03-04T08:16:20;24.37;;;14.53;;
8632;SDS011;4354;49.832;10.746;2023-03-04T08:18:50;24.17;;;14.73;;
8632;SDS011;4354;49.832;10.746;2023-03-04T08:21:19;24.23;;;15.70;;
8632;SDS011;4354;49.832;10.746;2023-03-04T08:23:47;23.07;;;13.63;;
8632;SDS011;4354;49.832;10.746;2023-03-04T08:26:18;20.30;;;14.27;;
8632;SDS011;4354;49.832;10.746;2023-03-04T08:28:52;21.30;;;14.43;;
8632;SDS011;4354;49.832;10.746;2023-03-04T08:31:19;22.60;;;14.50;;
8632;SDS011;4354;49.832;10.746;2023-03-04T08:33:46;21.47;;;13.93;;
8632;SDS011;4354;49.832;10.746;2023-03-04T08:36:14;19.20;;;14.03;;
8632;SDS011;4354;49.832;10.746;2023-03-04T08:38:41;23.90;;;14.63;;
8632;SDS011;4354;49.832;10.746;2023-03-04T08:41:08;23.17;;;13.93;;
8632;SDS011;4354;49.832;10.746;2023-03-04T08:43:35;23.03;;;14.20;;
8632;SDS011;4354;49.832;10.746;2023-03-04T08:46:02;24.23;;;15.53;;
8632;SDS011;4354;49.832;10.746;2023-03-04T08:48:30;26.93;;;14.90;;
8632;SDS011;4354;49.832;10.746;2023-03-04T08:50:56;27.00;;;14.93;;
8632;SDS011;4354;49.832;10.746;2023-03-04T08:53:23;34.80;;;14.93;;
8632;SDS011;4354;49.832;10.746;2023-03-04T08:55:50;37.17;;;15.17;;
8632;SDS011;4354;49.832;10.746;2023-03-04T08:58:18;29.57;;;14.73;;
8632;SDS011;4354;49.832;10.746;2023-03-04T09:00:45;25.53;;;15.70;;
8632;SDS011;4354;49.832;10.746;2023-03-04T09:03:14;28.37;;;13.97;;
8632;SDS011;4354;49.832;10.746;2023-03-04T09:05:43;24.00;;;14.20;;
8632;SDS011;4354;49.832;10.746;2023-03-04T09:08:10;21.17;;;13.50;;
8632;SDS011;4354;49.832;10.746;2023-03-04T09:10:37;23.73;;;14.30;;
8632;SDS011;4354;49.832;10.746;2023-03-04T09:13:04;43.03;;;15.70;;
8632;SDS011;4354;49.832;10.746;2023-03-04T09:15:32;32.70;;;16.40;;
8632;SDS011;4354;49.832;10.746;2023-03-04T09:18:01;23.07;;;15.10;;
8632;SDS011;4354;49.832;10.746;2023-03-04T09:20:29;23.90;;;14.13;;
8632;SDS011;4354;49.832;10.746;2023-03-04T09:22:57;30.33;;;15.53;;
8632;SDS011;4354;49.832;10.746;2023-03-04T09:25:24;26.63;;;14.80;;
8632;SDS011;4354;49.832;10.746;2023-03-04T09:27:50;22.27;;;13.63;;
8632;SDS011;4354;49.832;10.746;2023-03-04T09:30:17;19.53;;;13.53;;
8632;SDS011;4354;49.832;10.746;2023-03-04T09:32:44;21.63;;;13.93;;
8632;SDS011;4354;49.832;10.746;2023-03-04T09:35:11;19.30;;;14.40;;
8632;SDS011;4354;49.832;10.746;2023-03-04T09:37:38;19.10;;;13.40;;
8632;SDS011;4354;49.832;10.746;2023-03-04T09:40:07;22.60;;;14.53;;
8632;SDS011;4354;49.832;10.746;2023-03-04T09:42:49;24.83;;;14.10;;
8632;SDS011;4354;49.832;10.746;2023-03-04T09:45:19;24.10;;;14.43;;
8632;SDS011;4354;49.832;10.746;2023-03-04T09:47:49;19.83;;;13.20;;
8632;SDS011;4354;49.832;10.746;2023-03-04T09:50:18;20.23;;;14.00;;
8632;SDS011;4354;49.832;10.746;2023-03-04T09:57:50;18.53;;;12.77;;
8632;SDS011;4354;49.832;10.746;2023-03-04T10:00:42;17.63;;;13.30;;
8632;SDS011;4354;49.832;10.746;2023-03-04T10:03:17;20.43;;;13.27;;
8632;SDS011;4354;49.832;10.746;2023-03-04T10:05:54;21.43;;;13.70;;
8632;SDS011;4354;49.832;10.746;2023-03-04T10:16:44;17.93;;;12.57;;
8632;SDS011;4354;49.832;10.746;2023-03-04T10:21:47;18.70;;;12.07;;
8632;SDS011;4354;49.832;10.746;2023-03-04T10:24:18;17.47;;;12.03;;
8632;SDS011;4354;49.832;10.746;2023-03-04T10:26:50;24.33;;;13.07;;
8632;SDS011;4354;49.832;10.746;2023-03-04T10:29:20;19.60;;;12.50;;
8632;SDS011;4354;49.832;10.746;2023-03-04T10:31:49;22.37;;;12.33;;
8632;SDS011;4354;49.832;10.746;2023-03-04T10:34:17;16.93;;;12.20;;
8632;SDS011;4354;49.832;10.746;2023-03-04T10:39:34;17.07;;;11.70;;
8632;SDS011;4354;49.832;10.746;2023-03-04T10:44:41;20.43;;;12.93;;
8632;SDS011;4354;49.832;10.746;2023-03-04T10:47:26;17.07;;;12.00;;
8632;SDS011;4354;49.832;10.746;2023-03-04T10:49:55;17.30;;;11.13;;
8632;SDS011;4354;49.832;10.746;2023-03-04T10:54:59;18.57;;;12.93;;
8632;SDS011;4354;49.832;10.746;2023-03-04T10:57:50;15.23;;;11.73;;
8632;SDS011;4354;49.832;10.746;2023-03-04T11:00:30;19.47;;;11.63;;
8632;SDS011;4354;49.832;10.746;2023-03-04T11:03:45;17.50;;;12.27;;
8632;SDS011;4354;49.832;10.746;2023-03-04T11:08:54;21.40;;;11.40;;
8632;SDS011;4354;49.832;10.746;2023-03-04T11:11:39;16.87;;;10.83;;
8632;SDS011;4354;49.832;10.746;2023-03-04T11:14:13;15.27;;;11.10;;
8632;SDS011;4354;49.832;10.746;2023-03-04T11:16:52;17.90;;;11.13;;
8632;SDS011;4354;49.832;10.746;2023-03-04T11:19:28;15.53;;;10.63;;
8632;SDS011;4354;49.832;10.746;2023-03-04T11:22:00;20.03;;;10.70;;
8632;SDS011;4354;49.832;10.746;2023-03-04T11:24:28;17.83;;;10.50;;
8632;SDS011;4354;49.832;10.746;2023-03-04T11:27:05;17.60;;;9.80;;
8632;SDS011;4354;49.832;10.746;2023-03-04T11:30:02;15.60;;;10.40;;
8632;SDS011;4354;49.832;10.746;2023-03-04T11:32:31;17.47;;;10.17;;
8632;SDS011;4354;49.832;10.746;2023-03-04T11:37:50;17.07;;;9.80;;
8632;SDS011;4354;49.832;10.746;2023-03-04T11:40:28;15.13;;;9.43;;
8632;SDS011;4354;49.832;10.746;2023-03-04T11:43:29;15.53;;;9.60;;
8632;SDS011;4354;49.832;10.746;2023-03-04T11:49:44;15.17;;;10.33;;
8632;SDS011;4354;49.832;10.746;2023-03-04T12:00:35;18.67;;;10.70;;
8632;SDS011;4354;49.832;10.746;2023-03-04T12:06:11;12.03;;;8.73;;
8632;SDS011;4354;49.832;10.746;2023-03-04T12:17:20;15.20;;;8.17;;
8632;SDS011;4354;49.832;10.746;2023-03-04T12:19:55;17.73;;;8.00;;
8632;SDS011;4354;49.832;10.746;2023-03-04T12:22:44;14.63;;;8.40;;
8632;SDS011;4354;49.832;10.746;2023-03-04T12:52:20;16.50;;;9.50;;
8632;SDS011;4354;49.832;10.746;2023-03-04T12:55:03;13.40;;;8.73;;
8632;SDS011;4354;49.832;10.746;2023-03-04T12:57:39;12.77;;;8.27;;
8632;SDS011;4354;49.832;10.746;2023-03-04T13:06:06;15.70;;;9.03;;
8632;SDS011;4354;49.832;10.746;2023-03-04T13:09:04;16.47;;;8.73;;
8632;SDS011;4354;49.832;10.746;2023-03-04T13:16:52;17.03;;;8.93;;
8632;SDS011;4354;49.832;10.746;2023-03-04T13:43:45;15.87;;;9.17;;
8632;SDS011;4354;49.832;10.746;2023-03-04T13:56:26;17.47;;;8.43;;
8632;SDS011;4354;49.832;10.746;2023-03-04T14:04:19;18.20;;;8.20;;
8632;SDS011;4354;49.832;10.746;2023-03-04T14:06:54;14.43;;;8.00;;
8632;SDS011;4354;49.832;10.746;2023-03-04T14:09:26;18.10;;;8.70;;
8632;SDS011;4354;49.832;10.746;2023-03-04T14:12:03;16.07;;;8.60;;
8632;SDS011;4354;49.832;10.746;2023-03-04T14:14:44;19.27;;;8.33;;
8632;SDS011;4354;49.832;10.746;2023-03-04T14:17:19;14.73;;;7.97;;
8632;SDS011;4354;49.832;10.746;2023-03-04T14:19:48;13.87;;;7.50;;
8632;SDS011;4354;49.832;10.746;2023-03-04T14:22:29;13.80;;;7.07;;
8632;SDS011;4354;49.832;10.746;2023-03-04T14:27:31;13.17;;;7.07;;
8632;SDS011;4354;49.832;10.746;2023-03-04T14:30:03;13.13;;;6.37;;
8632;SDS011;4354;49.832;10.746;2023-03-04T14:32:32;13.87;;;6.50;;
8632;SDS011;4354;49.832;10.746;2023-03-04T14:35:03;11.63;;;6.37;;
8632;SDS011;4354;49.832;10.746;2023-03-04T14:37:42;12.87;;;6.87;;
8632;SDS011;4354;49.832;10.746;2023-03-04T14:40:21;13.90;;;6.43;;
8632;SDS011;4354;49.832;10.746;2023-03-04T14:42:54;15.83;;;6.63;;
8632;SDS011;4354;49.832;10.746;2023-03-04T14:45:26;12.97;;;6.40;;
8632;SDS011;4354;49.832;10.746;2023-03-04T14:47:56;10.83;;;5.73;;
8632;SDS011;4354;49.832;10.746;2023-03-04T14:50:31;12.13;;;6.40;;
8632;SDS011;4354;49.832;10.746;2023-03-04T14:55:34;11.60;;;6.47;;
8632;SDS011;4354;49.832;10.746;2023-03-04T14:58:08;14.27;;;6.60;;
8632;SDS011;4354;49.832;10.746;2023-03-04T15:00:45;13.17;;;6.43;;
8632;SDS011;4354;49.832;10.746;2023-03-04T15:03:23;15.57;;;6.80;;
8632;SDS011;4354;49.832;10.746;2023-03-04T15:05:53;12.87;;;6.50;;
8632;SDS011;4354;49.832;10.746;2023-03-04T15:08:22;17.30;;;6.90;;
8632;SDS011;4354;49.832;10.746;2023-03-04T15:11:00;14.27;;;7.10;;
8632;SDS011;4354;49.832;10.746;2023-03-04T15:16:08;11.67;;;6.50;;
8632;SDS011;4354;49.832;10.746;2023-03-04T15:18:36;13.40;;;6.37;;
8632;SDS011;4354;49.832;10.746;2023-03-04T15:21:04;13.07;;;6.80;;
8632;SDS011;4354;49.832;10.746;2023-03-04T15:23:54;13.97;;;6.03;;
8632;SDS011;4354;49.832;10.746;2023-03-04T15:26:21;19.40;;;9.17;;
8632;SDS011;4354;49.832;10.746;2023-03-04T15:28:48;20.17;;;9.50;;
8632;SDS011;4354;49.832;10.746;2023-03-04T15:31:16;18.97;;;10.43;;
8632;SDS011;4354;49.832;10.746;2023-03-04T15:33:44;15.73;;;7.57;;
8632;SDS011;4354;49.832;10.746;2023-03-04T15:36:13;10.93;;;6.73;;
8632;SDS011;4354;49.832;10.746;2023-03-04T15:38:42;12.57;;;6.43;;
8632;SDS011;4354;49.832;10.746;2023-03-04T15:41:14;11.20;;;6.73;;
8632;SDS011;4354;49.832;10.746;2023-03-04T15:43:52;10.97;;;6.27;;
8632;SDS011;4354;49.832;10.746;2023-03-04T15:46:19;20.23;;;7.77;;
8632;SDS011;4354;49.832;10.746;2023-03-04T15:48:46;19.57;;;7.97;;
8632;SDS011;4354;49.832;10.746;2023-03-04T15:51:18;12.43;;;6.70;;
8632;SDS011;4354;49.832;10.746;2023-03-04T15:53:48;9.90;;;6.10;;
8632;SDS011;4354;49.832;10.746;2023-03-04T15:59:30;10.90;;;6.40;;
8632;SDS011;4354;49.832;10.746;2023-03-04T16:01:39;14.63;;;5.97;;
8632;SDS011;4354;49.832;10.746;2023-03-04T16:04:08;13.67;;;6.17;;
8632;SDS011;4354;49.832;10.746;2023-03-04T16:06:38;11.20;;;6.30;;
8632;SDS011;4354;49.832;10.746;2023-03-04T16:09:07;12.50;;;6.57;;
8632;SDS011;4354;49.832;10.746;2023-03-04T16:11:41;13.97;;;6.50;;
8632;SDS011;4354;49.832;10.746;2023-03-04T16:14:12;10.57;;;6.63;;
8632;SDS011;4354;49.832;10.746;2023-03-04T16:16:40;14.17;;;6.20;;
8632;SDS011;4354;49.832;10.746;2023-03-04T16:19:08;16.03;;;6.23;;
8632;SDS011;4354;49.832;10.746;2023-03-04T16:21:35;12.77;;;6.57;;
8632;SDS011;4354;49.832;10.746;2023-03-04T16:24:02;12.77;;;6.97;;
8632;SDS011;4354;49.832;10.746;2023-03-04T16:26:30;9.73;;;6.40;;
8632;SDS011;4354;49.832;10.746;2023-03-04T16:28:58;12.17;;;6.17;;
8632;SDS011;4354;49.832;10.746;2023-03-04T16:31:25;11.67;;;6.93;;
8632;SDS011;4354;49.832;10.746;2023-03-04T16:33:52;10.67;;;7.13;;
8632;SDS011;4354;49.832;10.746;2023-03-04T16:38:48;17.50;;;8.40;;
8632;SDS011;4354;49.832;10.746;2023-03-04T16:41:15;16.10;;;8.43;;
8632;SDS011;4354;49.832;10.746;2023-03-04T16:43:46;14.33;;;7.70;;
8632;SDS011;4354;49.832;10.746;2023-03-04T16:46:13;14.73;;;7.80;;
8632;SDS011;4354;49.832;10.746;2023-03-04T16:48:40;15.27;;;7.37;;
8632;SDS011;4354;49.832;10.746;2023-03-04T16:51:11;13.70;;;7.80;;
8632;SDS011;4354;49.832;10.746;2023-03-04T16:53:40;16.77;;;7.87;;
8632;SDS011;4354;49.832;10.746;2023-03-04T16:56:13;15.87;;;7.53;;
8632;SDS011;4354;49.832;10.746;2023-03-04T16:58:42;13.40;;;8.00;;
8632;SDS011;4354;49.832;10.746;2023-03-04T17:01:19;15.97;;;8.13;;
8632;SDS011;4354;49.832;10.746;2023-03-04T17:03:51;18.33;;;8.27;;
8632;SDS011;4354;49.832;10.746;2023-03-04T17:06:19;11.43;;;8.00;;
8632;SDS011;4354;49.832;10.746;2023-03-04T17:08:46;13.50;;;7.97;;
8632;SDS011;4354;49.832;10.746;2023-03-04T17:11:15;16.93;;;8.47;;
8632;SDS011;4354;49.832;10.746;2023-03-04T17:13:44;14.53;;;7.63;;
8632;SDS011;4354;49.832;10.746;2023-03-04T17:16:11;15.53;;;8.30;;
8632;SDS011;4354;49.832;10.746;2023-03-04T17:18:38;14.63;;;8.00;;
8632;SDS011;4354;49.832;10.746;2023-03-04T17:21:07;15.03;;;8.37;;
8632;SDS011;4354;49.832;10.746;2023-03-04T17:23:37;11.70;;;7.13;;